Terminal Aerodrome Forecast
Issued by NWS Northern Indiana

Home | Current Version | Previous Version | Graphics & Text | Print | Product List | Glossary On
Versions: 1 2 3 4 5 6 7 8 9 10 11 12 13 14 15 16 17 18
000
FTUS43 KIWX 220152 AAA
TAFFWA
TAF AMD
KFWA 220152Z 2202/2224 20009KT P6SM SCT120 BKN200
     FM220800 22010KT P6SM VCTS SCT050CB BKN150 WS020/24040KT
      TEMPO 2208/2212 3SM TSRA BR OVC030CB
     FM221200 23011KT 6SM -SHRA BR OVC035
     FM221500 24009KT P6SM VCSH BKN025
     FM221800 25012G18KT P6SM BKN030
     FM222200 30011G17KT P6SM BKN035=

USA.gov is the U.S. government's official web portal to all federal, state and local government web resources and services.